1997 JUSTIN (1997062S16158)


On this page: IBTrACS data - Map and Plots - Positions - Intensities - Original source data

Summary

Start Mar 3
End Mar 29
Basin SP
LMI 95 kt
Sources jtwc_sh
bom
wellington
neumann
In WMO? Yes
Previous storm 1997 GAVIN (SP)
Previous in basin 1997 GAVIN (SP)
Concurrent storms 1997 LISETTE (SI)
1997 GAVIN (SP)
1997 JUSTIN (SP)
1997 HINA (SP)
Next in basin 1997 HINA (SP)
Next storm 1997 HINA (SP)

top of page IBTrACS Data: File Access

top of page HURSAT Data: File Access

Image of storm

top of page Plots:

Map of storm track will not appear if FTP is down
Time series of cyclone Maximum Sustained Wind will not appear if FTP is down
Time series of cyclone Minimum Central Pressure will not appear if FTP is down

top of page Track Data:Position

jtwc_sh bom wellington neumann
Date Lat Lon Lat Lon Lat Lon Lat Lon
1997-03-03 06:00:00 -16.2 158.0
1997-03-03 12:00:00 -16.2 157.9
1997-03-03 18:00:00 -16.2 157.8
1997-03-04 00:00:00 -16.2 157.7
1997-03-04 06:00:00 -16.2 157.6
1997-03-04 12:00:00 -16.3 157.5
1997-03-04 18:00:00 -16.4 157.4
1997-03-05 00:00:00 -16.6 157.4
1997-03-05 06:00:00 -16.8 157.3
1997-03-05 12:00:00 -16.9 157.1
1997-03-05 18:00:00 -17.1 156.8
1997-03-06 00:00:00 -17.2 156.1 -17.3 156.6
1997-03-06 06:00:00 -17.1 155.2 -17.4 155.7
1997-03-06 12:00:00 -16.9 154.6 -17.4 154.7
1997-03-06 18:00:00 -16.9 154.1 -17.0 153.5 -17.0 153.8 -17.0 153.5
1997-03-07 00:00:00 -16.8 153.5 -16.6 152.7 -16.7 153.1 -16.6 152.7
1997-03-07 06:00:00 -16.8 153.1 -16.5 152.5 -16.7 152.8 -16.5 152.5
1997-03-07 12:00:00 -16.8 152.8 -16.5 152.5 -16.6 152.5 -16.5 152.5
1997-03-07 18:00:00 -16.8 152.6 -16.7 151.9 -16.6 152.3 -16.7 151.9
1997-03-08 00:00:00 -16.9 152.3 -16.7 151.9 -16.6 152.0 -16.7 151.9
1997-03-08 06:00:00 -17.0 152.1 -17.0 151.9 -17.0 152.5 -17.0 151.9
1997-03-08 12:00:00 -17.1 151.9 -17.3 151.9 -17.5 152.0 -17.3 151.9
1997-03-08 18:00:00 -17.1 151.7 -17.2 151.3 -17.5 151.3 -17.2 151.3
1997-03-09 00:00:00 -17.0 151.6 -17.5 151.2 -17.5 151.1 -17.5 151.2
1997-03-09 06:00:00 -16.9 151.5 -17.3 151.2 -17.3 151.0 -17.3 151.2
jtwc_sh bom wellington neumann
1997-03-09 12:00:00 -16.8 151.4 -17.0 151.3 -17.1 151.0 -17.0 151.3
1997-03-09 18:00:00 -16.8 151.4 -16.8 151.4 -16.9 151.0 -16.8 151.4
1997-03-10 00:00:00 -16.8 151.4 -16.6 151.5 -16.8 151.1 -16.6 151.5
1997-03-10 06:00:00 -16.7 151.4 -16.6 151.6 -16.7 151.2 -16.6 151.6
1997-03-10 12:00:00 -16.7 151.4 -16.7 151.7 -16.6 151.3 -16.7 151.7
1997-03-10 18:00:00 -16.7 151.4 -16.7 151.8 -16.5 151.4 -16.7 151.8
1997-03-11 00:00:00 -16.7 151.4 -16.7 151.8 -16.5 151.5 -16.7 151.8
1997-03-11 06:00:00 -16.6 151.4 -16.6 151.9 -16.5 151.6 -16.6 151.9
1997-03-11 12:00:00 -16.6 151.4 -16.5 151.9 -16.6 151.7 -16.5 151.9
1997-03-11 18:00:00 -16.6 151.4 -16.2 151.8 -16.6 151.8 -16.2 151.8
1997-03-12 00:00:00 -16.5 151.5 -16.1 151.8 -16.6 151.8 -16.1 151.8
1997-03-12 06:00:00 -16.3 151.5 -16.1 151.8 -16.5 151.8 -16.1 151.8
1997-03-12 12:00:00 -15.8 151.5 -15.8 151.9 -16.3 151.8 -15.8 151.9
1997-03-12 18:00:00 -15.1 151.9 -15.5 152.0 -16.0 151.6 -15.5 152.0
1997-03-13 00:00:00 -14.9 152.5 -15.3 152.2 -15.6 151.5 -15.3 152.2
1997-03-13 06:00:00 -14.7 152.7 -14.9 152.5 -15.1 151.6 -14.9 152.5
1997-03-13 12:00:00 -14.5 152.7 -14.2 152.3 -14.5 151.7 -14.2 152.3
1997-03-13 18:00:00 -14.2 152.7 -13.6 152.2 -14.0 151.8 -13.6 152.2
1997-03-14 00:00:00 -13.8 152.7 -13.0 152.2 -13.5 152.0 -13.0 152.2
1997-03-14 06:00:00 -13.3 152.8 -12.6 152.6 -12.8 152.5 -12.6 152.6
1997-03-14 12:00:00 -12.9 153.1 -12.3 153.2 -12.8 153.0 -12.3 153.2
1997-03-14 18:00:00 -12.5 153.6 -12.0 153.7 -12.9 153.2 -12.0 153.7
1997-03-15 00:00:00 -12.2 154.1 -11.7 154.2 -12.8 153.6 -11.7 154.2
1997-03-15 06:00:00 -11.9 154.8 -11.3 154.6 -12.0 154.7 -11.3 154.6
jtwc_sh bom wellington neumann
1997-03-15 12:00:00 -11.9 155.3 -11.6 155.1 -11.0 155.3 -11.6 155.1
1997-03-15 18:00:00 -11.9 155.6 -11.9 156.0 -11.2 156.0 -11.9 155.6
1997-03-16 00:00:00 -12.0 155.8 -12.2 156.0 -11.8 155.8 -12.2 156.0
1997-03-16 06:00:00 -12.1 156.0 -12.3 155.9 -12.1 155.7 -12.3 155.9
1997-03-16 12:00:00 -12.3 156.1 -12.5 155.9 -12.5 155.7 -12.5 155.9
1997-03-16 18:00:00 -12.4 155.9 -13.0 155.7 -13.1 155.6 -13.0 155.7
1997-03-17 00:00:00 -12.4 155.7 -12.4 155.5 -12.7 155.5 -12.4 155.5
1997-03-17 06:00:00 -12.3 155.5 -12.5 155.5 -12.5 155.5 -12.5 155.5
1997-03-17 12:00:00 -12.2 155.4 -13.0 155.1 -12.3 155.5 -13.0 155.1
1997-03-17 18:00:00 -12.0 155.4 -12.3 154.8 -12.0 155.6 -12.3 154.8
1997-03-18 00:00:00 -11.9 155.4 -11.9 155.4 -11.9 155.5 -11.9 155.4
1997-03-18 06:00:00 -11.9 155.3 -11.9 155.2 -12.0 155.2 -11.9 155.2
1997-03-18 12:00:00 -12.0 154.8 -12.0 154.7 -12.0 154.8 -12.0 154.7
1997-03-18 18:00:00 -12.1 154.3 -12.2 154.3 -12.2 154.2 -12.2 154.3
1997-03-19 00:00:00 -12.2 153.7 -12.4 154.0 -12.4 153.4 -12.4 154.0
1997-03-19 06:00:00 -12.5 153.2 -12.5 153.6 -12.7 152.9 -12.5 153.6
1997-03-19 12:00:00 -12.9 152.7 -13.1 152.7 -13.2 152.6 -13.1 152.7
1997-03-19 18:00:00 -13.5 152.1 -13.6 152.1 -13.6 152.1 -13.6 152.1
1997-03-20 00:00:00 -14.1 151.4 -14.1 151.4 -14.1 151.5 -14.1 151.4
1997-03-20 06:00:00 -14.6 150.7 -14.6 150.6 -14.6 150.6 -14.6 150.6
1997-03-20 12:00:00 -15.0 149.9 -14.9 149.7 -14.8 149.8 -14.9 149.7
1997-03-20 18:00:00 -15.2 149.1 -15.2 148.9 -15.2 148.9 -15.2 148.9
1997-03-21 00:00:00 -15.3 148.4 -15.4 148.1 -15.4 148.1 -15.4 148.1
1997-03-21 06:00:00 -15.5 147.8 -15.6 147.3 -15.5 147.4 -15.6 147.3
jtwc_sh bom wellington neumann
1997-03-21 12:00:00 -15.8 147.3 -16.0 147.1 -15.6 147.2 -16.0 147.1
1997-03-21 18:00:00 -16.3 146.7 -16.5 146.7 -16.3 146.7 -16.5 146.7
1997-03-22 00:00:00 -16.8 146.0 -16.7 146.0 -16.9 145.8 -16.7 146.0
1997-03-22 06:00:00 -17.0 145.3 -16.9 145.3 -16.9 145.2 -16.9 145.3
1997-03-22 12:00:00 -17.1 144.9 -17.0 145.0 -17.0 144.9 -17.0 145.0
1997-03-22 18:00:00 -17.5 144.7 -17.4 144.8 -17.4 144.8 -17.4 144.8
1997-03-23 00:00:00 -17.9 144.9 -17.6 144.9 -17.7 144.9 -17.6 144.9
1997-03-23 06:00:00 -18.3 145.3 -18.1 145.5 -18.1 145.4 -18.1 145.5
1997-03-23 12:00:00 -18.7 146.2 -18.6 145.9 -18.6 146.1 -18.6 145.9
1997-03-23 18:00:00 -19.1 147.1 -19.0 146.7 -18.9 146.8 -19.0 146.7
1997-03-24 00:00:00 -19.5 147.8 -19.2 147.4 -19.2 147.6 -19.2 147.3
1997-03-24 06:00:00 -19.8 148.4 -19.6 148.3
1997-03-24 12:00:00 -20.1 149.1 -20.0 149.0
1997-03-24 18:00:00 -20.5 149.7 -20.2 149.8
1997-03-25 00:00:00 -20.7 150.4 -20.3 150.7
1997-03-25 06:00:00 -20.8 151.1 -20.7 152.0
1997-03-25 12:00:00 -20.8 151.6 -20.9 152.9
1997-03-25 18:00:00 -20.8 151.9 -20.7 152.9
1997-03-26 00:00:00 -20.6 152.2 -20.3 152.5
1997-03-26 06:00:00 -20.3 152.4 -19.9 152.3
1997-03-26 12:00:00 -20.0 152.1 -19.5 152.1
1997-03-26 18:00:00 -19.8 151.6 -19.1 151.8
1997-03-27 00:00:00 -19.5 151.1 -18.6 151.4
1997-03-27 06:00:00 -18.7 150.9 -18.0 151.1
jtwc_sh bom wellington neumann
1997-03-27 12:00:00 -17.6 150.3 -17.2 150.8
1997-03-27 18:00:00 -16.5 149.9 -16.4 150.2
1997-03-28 00:00:00 -15.6 149.6 -15.5 149.5
1997-03-28 06:00:00 -14.7 149.3 -14.7 148.8
1997-03-28 12:00:00 -13.7 149.2 -13.8 148.1
1997-03-28 18:00:00 -12.5 148.7 -12.9 147.5
1997-03-29 00:00:00 -11.8 147.6 -12.0 147.0
1997-03-29 06:00:00 -11.3 146.5
1997-03-29 12:00:00 -10.9 145.3

top of pageTrack Data:Intensity

jtwc_sh bom wellington neumann
Date Wind Pres Wind Pres Wind Pres Wind Pres
1997-03-03 06:00:00 25.
1997-03-03 12:00:00 25.
1997-03-03 18:00:00 25.
1997-03-04 00:00:00 25.
1997-03-04 06:00:00 25.
1997-03-04 12:00:00 25.
1997-03-04 18:00:00 25.
1997-03-05 00:00:00 25.
1997-03-05 06:00:00 25.
1997-03-05 12:00:00 25.
1997-03-05 18:00:00 25.
1997-03-06 00:00:00 30. 30. 997.
1997-03-06 06:00:00 30. 30. 997.
1997-03-06 12:00:00 35. 35. 995.
1997-03-06 18:00:00 40. 45. 990. 40. 986. 45. 990.
1997-03-07 00:00:00 45. 45. 987. 45. 986. 50. 987.
1997-03-07 06:00:00 50. 45. 981. 45. 984. 55. 983.
1997-03-07 12:00:00 50. 45. 981. 45. 982. 60. 981.
1997-03-07 18:00:00 50. 51. 977. 50. 985. 65. 977.
1997-03-08 00:00:00 50. 51. 980. 55. 980. 60. 980.
1997-03-08 06:00:00 50. 51. 978. 55. 980. 65. 978.
1997-03-08 12:00:00 50. 51. 976. 60. 975. 65. 976.
1997-03-08 18:00:00 50. 51. 975. 60. 975. 70. 975.
1997-03-09 00:00:00 50. 60. 974. 60. 975. 70. 974.
1997-03-09 06:00:00 55. 60. 975. 60. 975. 70. 975.
jtwc_sh bom wellington neumann
1997-03-09 12:00:00 55. 60. 975. 60. 975. 70. 975.
1997-03-09 18:00:00 55. 60. 976. 60. 975. 65. 976.
1997-03-10 00:00:00 55. 60. 977. 60. 975. 65. 977.
1997-03-10 06:00:00 55. 60. 978. 60. 975. 65. 978.
1997-03-10 12:00:00 55. 60. 980. 60. 975. 60. 980.
1997-03-10 18:00:00 55. 60. 980. 55. 980. 60. 980.
1997-03-11 00:00:00 55. 51. 980. 55. 980. 60. 980.
1997-03-11 06:00:00 55. 51. 982. 55. 980. 60. 982.
1997-03-11 12:00:00 55. 51. 984. 55. 980. 55. 984.
1997-03-11 18:00:00 50. 51. 985. 50. 985. 55. 985.
1997-03-12 00:00:00 45. 45. 987. 50. 985. 50. 987.
1997-03-12 06:00:00 45. 35. 990. 50. 985. 45. 990.
1997-03-12 12:00:00 45. 41. 990. 40. 990. 45. 990.
1997-03-12 18:00:00 45. 41. 990. 40. 990. 45. 990.
1997-03-13 00:00:00 45. 41. 990. 35. 995. 45. 990.
1997-03-13 06:00:00 40. 41. 985. 35. 995. 55. 985.
1997-03-13 12:00:00 40. 35. 985. 30. 997. 55. 985.
1997-03-13 18:00:00 40. 35. 985. 30. 997. 55. 985.
1997-03-14 00:00:00 35. 41. 980. 40. 990. 60. 980.
1997-03-14 06:00:00 35. 45. 980. 40. 990. 60. 980.
1997-03-14 12:00:00 45. 45. 980. 40. 990. 60. 980.
1997-03-14 18:00:00 45. 45. 980. 40. 990. 60. 980.
1997-03-15 00:00:00 45. 45. 980. 40. 990. 60. 980.
1997-03-15 06:00:00 50. 45. 980. 40. 990. 60. 980.
jtwc_sh bom wellington neumann
1997-03-15 12:00:00 55. 45. 980. 40. 990. 60. 980.
1997-03-15 18:00:00 65. 45. 980. 40. 990. 60. 980.
1997-03-16 00:00:00 65. 45. 980. 45. 987. 60. 980.
1997-03-16 06:00:00 65. 45. 975. 45. 987. 70. 975.
1997-03-16 12:00:00 70. 51. 970. 50. 985. 75. 970.
1997-03-16 18:00:00 75. 64. 970. 65. 970. 75. 970.
1997-03-17 00:00:00 70. 64. 965. 65. 970. 80. 965.
1997-03-17 06:00:00 70. 64. 960. 65. 970. 85. 960.
1997-03-17 12:00:00 75. 70. 955. 70. 965. 95. 955.
1997-03-17 18:00:00 90. 82. 955. 70. 965. 95. 955.
1997-03-18 00:00:00 90. 82. 955. 80. 955. 95. 955.
1997-03-18 06:00:00 90. 82. 955. 80. 955. 95. 955.
1997-03-18 12:00:00 90. 82. 955. 80. 955. 95. 955.
1997-03-18 18:00:00 90. 82. 960. 80. 955. 85. 960.
1997-03-19 00:00:00 90. 82. 965. 80. 955. 80. 965.
1997-03-19 06:00:00 85. 70. 970. 80. 955. 75. 970.
1997-03-19 12:00:00 75. 60. 980. 65. 970. 60. 980.
1997-03-19 18:00:00 65. 70. 980. 60. 975. 60. 980.
1997-03-20 00:00:00 55. 54. 985. 55. 980. 55. 985.
1997-03-20 06:00:00 55. 51. 985. 50. 985. 55. 985.
1997-03-20 12:00:00 50. 45. 990. 45. 987. 45. 990.
1997-03-20 18:00:00 50. 45. 992. 45. 987. 45. 992.
1997-03-21 00:00:00 50. 45. 995. 45. 987. 40. 995.
1997-03-21 06:00:00 50. 45. 995. 45. 987. 40. 995.
jtwc_sh bom wellington neumann
1997-03-21 12:00:00 50. 45. 997. 45. 987. 35. 997.
1997-03-21 18:00:00 50. 49. 995. 45. 987. 40. 995.
1997-03-22 00:00:00 55. 51. 993. 45. 987. 40. 993.
1997-03-22 06:00:00 50. 41. 995. 40. 990. 40. 995.
1997-03-22 12:00:00 45. 41. 999. 35. 997. 30. 999.
1997-03-22 18:00:00 40. 41. 1000. 35. 1000. 30. 1000.
1997-03-23 00:00:00 40. 41. 1002. 35. 1000. 25. 1002.
1997-03-23 06:00:00 40. 35. 1000. 35. 1000. 25. 1000.
1997-03-23 12:00:00 45. 45. 999. 30. 1000. 25. 999.
1997-03-23 18:00:00 45. 45. 999. 30. 1000. 30. 999.
1997-03-24 00:00:00 45. 41. 1004. 30. 1000. 20. 1004.
1997-03-24 06:00:00 45. 30. 1000.
1997-03-24 12:00:00 35. 30. 1000.
1997-03-24 18:00:00 35. 30. 1000.
1997-03-25 00:00:00 35. 30. 997.
1997-03-25 06:00:00 35. 30. 997.
1997-03-25 12:00:00 35. 30. 997.
1997-03-25 18:00:00 35. 30. 997.
1997-03-26 00:00:00 30. 30. 997.
1997-03-26 06:00:00 30. 30. 997.
1997-03-26 12:00:00 30. 30. 997.
1997-03-26 18:00:00 30. 30. 997.
1997-03-27 00:00:00 30. 30. 997.
1997-03-27 06:00:00 30. 30. 997.
jtwc_sh bom wellington neumann
1997-03-27 12:00:00 30. 30. 997.
1997-03-27 18:00:00 30. 30. 997.
1997-03-28 00:00:00 25. 30. 997.
1997-03-28 06:00:00 25. 30. 997.
1997-03-28 12:00:00 25. 30. 997.
1997-03-28 18:00:00 20. 30. 997.
1997-03-29 00:00:00 20. 30. 997.
1997-03-29 06:00:00 15.
1997-03-29 12:00:00 25.

top of page Links to source data

Source Source file Format
jtwc_sh bsh321997.txt ATCF
bom Newcyclonedatabase-08repair.csv:Line=18262:JUSTIN CSV file (from Excel file)
wellington TC_BT_1967_2006.csv:Line=5459:JUSTIN Text table
neumann tracks.sh:Storm=1096:JUSTIN:BSH321997:BM861&NZeal19060 HURDAT